sensor_id;sensor_type;location;lat;lon;timestamp;pressure;altitude;pressure_sealevel;temperature;humidity
71666;BME280;59503;53.486;10.196;2023-01-15T00:00:47;99461.78;;;5.96;100.00
71666;BME280;59503;53.486;10.196;2023-01-15T00:03:13;99476.41;;;5.95;100.00
71666;BME280;59503;53.486;10.196;2023-01-15T00:05:38;99481.31;;;5.90;100.00
71666;BME280;59503;53.486;10.196;2023-01-15T00:08:04;99466.50;;;5.80;100.00
71666;BME280;59503;53.486;10.196;2023-01-15T00:10:29;99477.28;;;5.80;100.00
71666;BME280;59503;53.486;10.196;2023-01-15T00:12:55;99468.50;;;5.83;100.00
71666;BME280;59503;53.486;10.196;2023-01-15T00:15:20;99472.63;;;5.77;100.00
71666;BME280;59503;53.486;10.196;2023-01-15T00:17:46;99474.16;;;5.78;100.00
71666;BME280;59503;53.486;10.196;2023-01-15T00:20:11;99473.34;;;5.74;100.00
71666;BME280;59503;53.486;10.196;2023-01-15T00:22:37;99477.91;;;5.70;100.00
71666;BME280;59503;53.486;10.196;2023-01-15T00:25:03;99477.78;;;5.63;100.00
71666;BME280;59503;53.486;10.196;2023-01-15T00:27:47;99473.81;;;5.57;100.00
71666;BME280;59503;53.486;10.196;2023-01-15T00:30:14;99474.94;;;5.56;100.00
71666;BME280;59503;53.486;10.196;2023-01-15T00:32:40;99468.78;;;5.56;100.00
71666;BME280;59503;53.486;10.196;2023-01-15T00:35:09;99475.97;;;5.48;100.00
71666;BME280;59503;53.486;10.196;2023-01-15T00:37:36;99489.06;;;5.50;100.00
71666;BME280;59503;53.486;10.196;2023-01-15T00:40:01;99493.28;;;5.47;100.00
71666;BME280;59503;53.486;10.196;2023-01-15T00:42:26;99491.72;;;5.46;100.00
71666;BME280;59503;53.486;10.196;2023-01-15T00:44:52;99501.22;;;5.40;100.00
71666;BME280;59503;53.486;10.196;2023-01-15T00:47:17;99499.78;;;5.46;100.00
71666;BME280;59503;53.486;10.196;2023-01-15T00:49:43;99504.19;;;5.54;100.00
71666;BME280;59503;53.486;10.196;2023-01-15T00:52:10;99506.53;;;5.56;100.00
71666;BME280;59503;53.486;10.196;2023-01-15T00:54:35;99515.97;;;5.46;100.00
71666;BME280;59503;53.486;10.196;2023-01-15T00:57:01;99514.72;;;5.40;100.00
71666;BME280;59503;53.486;10.196;2023-01-15T00:59:26;99514.28;;;5.38;100.00
71666;BME280;59503;53.486;10.196;2023-01-15T01:01:52;99515.19;;;5.46;100.00
71666;BME280;59503;53.486;10.196;2023-01-15T01:04:17;99517.75;;;5.39;100.00
71666;BME280;59503;53.486;10.196;2023-01-15T01:06:43;99515.13;;;5.42;100.00
71666;BME280;59503;53.486;10.196;2023-01-15T01:09:17;99515.06;;;5.39;100.00
71666;BME280;59503;53.486;10.196;2023-01-15T01:11:43;99520.81;;;5.37;100.00
71666;BME280;59503;53.486;10.196;2023-01-15T01:14:09;99526.28;;;5.41;100.00
71666;BME280;59503;53.486;10.196;2023-01-15T01:16:39;99533.44;;;5.33;100.00
71666;BME280;59503;53.486;10.196;2023-01-15T01:19:18;99540.09;;;5.39;100.00
71666;BME280;59503;53.486;10.196;2023-01-15T01:21:46;99532.06;;;5.43;100.00
71666;BME280;59503;53.486;10.196;2023-01-15T01:24:15;99540.03;;;5.36;100.00
71666;BME280;59503;53.486;10.196;2023-01-15T01:26:41;99537.69;;;5.34;100.00
71666;BME280;59503;53.486;10.196;2023-01-15T01:29:11;99544.72;;;5.39;100.00
71666;BME280;59503;53.486;10.196;2023-01-15T01:31:37;99536.56;;;5.35;100.00
71666;BME280;59503;53.486;10.196;2023-01-15T01:34:02;99534.56;;;5.32;100.00
71666;BME280;59503;53.486;10.196;2023-01-15T01:36:30;99535.63;;;5.28;100.00
71666;BME280;59503;53.486;10.196;2023-01-15T01:38:57;99530.94;;;5.25;100.00
71666;BME280;59503;53.486;10.196;2023-01-15T01:41:23;99526.63;;;5.20;100.00
71666;BME280;59503;53.486;10.196;2023-01-15T01:46:22;99522.22;;;5.31;100.00
71666;BME280;59503;53.486;10.196;2023-01-15T01:48:51;99532.72;;;5.36;100.00
71666;BME280;59503;53.486;10.196;2023-01-15T01:51:21;99522.72;;;5.37;100.00
71666;BME280;59503;53.486;10.196;2023-01-15T01:53:48;99515.34;;;5.34;100.00
71666;BME280;59503;53.486;10.196;2023-01-15T01:56:14;99526.63;;;5.39;100.00
71666;BME280;59503;53.486;10.196;2023-01-15T01:58:44;99522.06;;;5.43;100.00
71666;BME280;59503;53.486;10.196;2023-01-15T02:01:11;99522.44;;;5.42;100.00
71666;BME280;59503;53.486;10.196;2023-01-15T02:03:37;99516.38;;;5.48;100.00
71666;BME280;59503;53.486;10.196;2023-01-15T02:06:06;99525.34;;;5.52;100.00
71666;BME280;59503;53.486;10.196;2023-01-15T02:08:33;99518.59;;;5.43;100.00
71666;BME280;59503;53.486;10.196;2023-01-15T02:11:00;99517.53;;;5.47;100.00
71666;BME280;59503;53.486;10.196;2023-01-15T02:13:38;99512.91;;;5.48;100.00
71666;BME280;59503;53.486;10.196;2023-01-15T02:16:20;99510.22;;;5.48;100.00
71666;BME280;59503;53.486;10.196;2023-01-15T02:19:06;99502.19;;;5.51;100.00
71666;BME280;59503;53.486;10.196;2023-01-15T02:22:01;99506.34;;;5.45;100.00
71666;BME280;59503;53.486;10.196;2023-01-15T02:27:33;99504.81;;;5.48;100.00
71666;BME280;59503;53.486;10.196;2023-01-15T02:32:35;99505.19;;;5.46;100.00
71666;BME280;59503;53.486;10.196;2023-01-15T02:35:12;99502.78;;;5.41;100.00
71666;BME280;59503;53.486;10.196;2023-01-15T02:37:43;99515.19;;;5.46;100.00
71666;BME280;59503;53.486;10.196;2023-01-15T02:40:11;99507.94;;;5.50;100.00
71666;BME280;59503;53.486;10.196;2023-01-15T02:42:39;99516.03;;;5.50;100.00
71666;BME280;59503;53.486;10.196;2023-01-15T02:45:07;99512.88;;;5.44;100.00
71666;BME280;59503;53.486;10.196;2023-01-15T02:47:34;99506.75;;;5.47;100.00
71666;BME280;59503;53.486;10.196;2023-01-15T02:50:05;99504.34;;;5.42;100.00
71666;BME280;59503;53.486;10.196;2023-01-15T02:52:36;99509.47;;;5.47;100.00
71666;BME280;59503;53.486;10.196;2023-01-15T02:55:36;99507.06;;;5.42;100.00
71666;BME280;59503;53.486;10.196;2023-01-15T02:58:07;99513.84;;;5.36;100.00
71666;BME280;59503;53.486;10.196;2023-01-15T03:00:38;99517.41;;;5.40;100.00
71666;BME280;59503;53.486;10.196;2023-01-15T03:06:01;99516.91;;;5.35;100.00
71666;BME280;59503;53.486;10.196;2023-01-15T03:08:29;99506.56;;;5.37;100.00
71666;BME280;59503;53.486;10.196;2023-01-15T03:11:02;99516.81;;;5.50;100.00
71666;BME280;59503;53.486;10.196;2023-01-15T03:16:35;99519.81;;;5.45;100.00
71666;BME280;59503;53.486;10.196;2023-01-15T03:19:25;99518.66;;;5.46;100.00
71666;BME280;59503;53.486;10.196;2023-01-15T03:22:13;99524.41;;;5.45;100.00
71666;BME280;59503;53.486;10.196;2023-01-15T03:25:03;99518.59;;;5.43;100.00
71666;BME280;59503;53.486;10.196;2023-01-15T03:27:29;99513.50;;;5.38;100.00
71666;BME280;59503;53.486;10.196;2023-01-15T03:30:00;99514.94;;;5.32;100.00
71666;BME280;59503;53.486;10.196;2023-01-15T03:32:27;99519.66;;;5.38;100.00
71666;BME280;59503;53.486;10.196;2023-01-15T03:34:54;99510.47;;;5.39;100.00
71666;BME280;59503;53.486;10.196;2023-01-15T03:37:21;99505.38;;;5.34;100.00
71666;BME280;59503;53.486;10.196;2023-01-15T03:39:48;99496.56;;;5.37;100.00
71666;BME280;59503;53.486;10.196;2023-01-15T03:42:19;99501.22;;;5.40;100.00
71666;BME280;59503;53.486;10.196;2023-01-15T03:45:16;99506.25;;;5.42;100.00
71666;BME280;59503;53.486;10.196;2023-01-15T03:50:41;99504.22;;;5.35;100.00
71666;BME280;59503;53.486;10.196;2023-01-15T03:53:22;99505.91;;;5.43;100.00
71666;BME280;59503;53.486;10.196;2023-01-15T03:55:56;99506.63;;;5.40;100.00
71666;BME280;59503;53.486;10.196;2023-01-15T03:58:38;99498.97;;;5.42;100.00
71666;BME280;59503;53.486;10.196;2023-01-15T04:01:09;99490.31;;;5.33;100.00
71666;BME280;59503;53.486;10.196;2023-01-15T04:03:36;99490.63;;;5.28;100.00
71666;BME280;59503;53.486;10.196;2023-01-15T04:06:04;99490.97;;;5.27;100.00
71666;BME280;59503;53.486;10.196;2023-01-15T04:08:36;99489.13;;;5.31;100.00
71666;BME280;59503;53.486;10.196;2023-01-15T04:11:02;99495.16;;;5.24;100.00
71666;BME280;59503;53.486;10.196;2023-01-15T04:13:28;99487.91;;;5.28;100.00
71666;BME280;59503;53.486;10.196;2023-01-15T04:15:55;99482.00;;;5.19;100.00
71666;BME280;59503;53.486;10.196;2023-01-15T04:18:20;99496.28;;;5.23;100.00
71666;BME280;59503;53.486;10.196;2023-01-15T04:20:46;99485.59;;;5.27;100.00
71666;BME280;59503;53.486;10.196;2023-01-15T04:23:12;99478.59;;;5.22;100.00
71666;BME280;59503;53.486;10.196;2023-01-15T04:25:38;99488.56;;;5.22;100.00
71666;BME280;59503;53.486;10.196;2023-01-15T04:28:05;99478.16;;;5.20;100.00
71666;BME280;59503;53.486;10.196;2023-01-15T04:30:31;99477.28;;;5.16;100.00
71666;BME280;59503;53.486;10.196;2023-01-15T04:32:57;99462.72;;;5.17;100.00
71666;BME280;59503;53.486;10.196;2023-01-15T04:35:22;99462.41;;;5.22;100.00
71666;BME280;59503;53.486;10.196;2023-01-15T04:37:47;99465.53;;;5.24;100.00
71666;BME280;59503;53.486;10.196;2023-01-15T04:40:13;99466.22;;;5.21;100.00
71666;BME280;59503;53.486;10.196;2023-01-15T04:42:59;99477.66;;;5.15;100.00
71666;BME280;59503;53.486;10.196;2023-01-15T04:45:43;99478.50;;;5.19;100.00
71666;BME280;59503;53.486;10.196;2023-01-15T04:48:09;99468.81;;;5.14;100.00
71666;BME280;59503;53.486;10.196;2023-01-15T04:50:35;99467.25;;;5.13;100.00
71666;BME280;59503;53.486;10.196;2023-01-15T04:53:00;99484.53;;;5.12;100.00
71666;BME280;59503;53.486;10.196;2023-01-15T04:55:26;99473.13;;;5.19;100.00
71666;BME280;59503;53.486;10.196;2023-01-15T04:57:51;99468.09;;;5.17;100.00
71666;BME280;59503;53.486;10.196;2023-01-15T05:00:17;99482.31;;;5.18;100.00
71666;BME280;59503;53.486;10.196;2023-01-15T05:02:42;99490.84;;;5.20;100.00
71666;BME280;59503;53.486;10.196;2023-01-15T05:05:08;99472.41;;;5.22;100.00
71666;BME280;59503;53.486;10.196;2023-01-15T05:07:33;99468.84;;;5.18;100.00
71666;BME280;59503;53.486;10.196;2023-01-15T05:09:59;99465.75;;;5.16;100.00
71666;BME280;59503;53.486;10.196;2023-01-15T05:12:24;99464.19;;;5.15;100.00
71666;BME280;59503;53.486;10.196;2023-01-15T05:14:50;99466.66;;;5.04;100.00
71666;BME280;59503;53.486;10.196;2023-01-15T05:17:16;99456.63;;;5.01;100.00
71666;BME280;59503;53.486;10.196;2023-01-15T05:19:41;99460.59;;;5.07;100.00
71666;BME280;59503;53.486;10.196;2023-01-15T05:22:07;99460.31;;;4.93;100.00
71666;BME280;59503;53.486;10.196;2023-01-15T05:24:33;99440.97;;;4.87;100.00
71666;BME280;59503;53.486;10.196;2023-01-15T05:26:59;99438.63;;;4.86;100.00
71666;BME280;59503;53.486;10.196;2023-01-15T05:29:25;99447.34;;;4.79;100.00
71666;BME280;59503;53.486;10.196;2023-01-15T05:31:50;99449.31;;;4.82;100.00
71666;BME280;59503;53.486;10.196;2023-01-15T05:34:16;99458.53;;;4.81;100.00
71666;BME280;59503;53.486;10.196;2023-01-15T05:36:41;99455.50;;;4.83;100.00
71666;BME280;59503;53.486;10.196;2023-01-15T05:39:06;99451.25;;;4.82;100.00
71666;BME280;59503;53.486;10.196;2023-01-15T05:41:32;99460.59;;;4.88;100.00
71666;BME280;59503;53.486;10.196;2023-01-15T05:44:14;99450.81;;;4.80;100.00
71666;BME280;59503;53.486;10.196;2023-01-15T05:46:42;99455.06;;;4.81;100.00
71666;BME280;59503;53.486;10.196;2023-01-15T05:49:10;99471.56;;;4.79;100.00
71666;BME280;59503;53.486;10.196;2023-01-15T05:51:37;99468.09;;;4.79;100.00
71666;BME280;59503;53.486;10.196;2023-01-15T05:54:04;99458.75;;;4.73;100.00
71666;BME280;59503;53.486;10.196;2023-01-15T05:56:30;99453.66;;;4.68;100.00
71666;BME280;59503;53.486;10.196;2023-01-15T05:58:55;99463.63;;;4.67;100.00
71666;BME280;59503;53.486;10.196;2023-01-15T06:01:21;99456.78;;;4.70;100.00
71666;BME280;59503;53.486;10.196;2023-01-15T06:03:46;99464.13;;;4.73;100.00
71666;BME280;59503;53.486;10.196;2023-01-15T06:06:14;99457.97;;;4.72;100.00
71666;BME280;59503;53.486;10.196;2023-01-15T06:08:40;99463.34;;;4.72;100.00
71666;BME280;59503;53.486;10.196;2023-01-15T06:11:05;99455.84;;;4.62;100.00
71666;BME280;59503;53.486;10.196;2023-01-15T06:13:32;99455.78;;;4.78;100.00
71666;BME280;59503;53.486;10.196;2023-01-15T06:15:59;99454.91;;;4.74;100.00
71666;BME280;59503;53.486;10.196;2023-01-15T06:18:24;99457.22;;;4.72;100.00
71666;BME280;59503;53.486;10.196;2023-01-15T06:20:50;99468.66;;;4.69;100.00
71666;BME280;59503;53.486;10.196;2023-01-15T06:23:16;99464.00;;;4.66;100.00
71666;BME280;59503;53.486;10.196;2023-01-15T06:25:42;99472.78;;;4.63;100.00
71666;BME280;59503;53.486;10.196;2023-01-15T06:28:08;99465.41;;;4.60;100.00
71666;BME280;59503;53.486;10.196;2023-01-15T06:30:36;99467.38;;;4.63;100.00
71666;BME280;59503;53.486;10.196;2023-01-15T06:33:03;99463.06;;;4.58;100.00
71666;BME280;59503;53.486;10.196;2023-01-15T06:35:28;99451.16;;;4.59;100.00
71666;BME280;59503;53.486;10.196;2023-01-15T06:37:54;99455.75;;;4.59;100.00
71666;BME280;59503;53.486;10.196;2023-01-15T06:40:19;99462.72;;;4.60;100.00
71666;BME280;59503;53.486;10.196;2023-01-15T06:42:45;99459.75;;;4.65;100.00
71666;BME280;59503;53.486;10.196;2023-01-15T06:45:38;99450.03;;;4.60;100.00
71666;BME280;59503;53.486;10.196;2023-01-15T06:48:24;99457.34;;;4.60;100.00
71666;BME280;59503;53.486;10.196;2023-01-15T06:50:50;99440.31;;;4.56;100.00
71666;BME280;59503;53.486;10.196;2023-01-15T06:53:15;99457.19;;;4.53;100.00
71666;BME280;59503;53.486;10.196;2023-01-15T06:55:41;99457.53;;;4.51;100.00
71666;BME280;59503;53.486;10.196;2023-01-15T06:58:06;99459.75;;;4.65;100.00
71666;BME280;59503;53.486;10.196;2023-01-15T07:00:31;99451.25;;;4.63;100.00
71666;BME280;59503;53.486;10.196;2023-01-15T07:03:01;99464.53;;;4.56;100.00
71666;BME280;59503;53.486;10.196;2023-01-15T07:05:27;99464.53;;;4.56;100.00
71666;BME280;59503;53.486;10.196;2023-01-15T07:07:52;99469.66;;;4.61;100.00
71666;BME280;59503;53.486;10.196;2023-01-15T07:10:18;99464.00;;;4.66;100.00
71666;BME280;59503;53.486;10.196;2023-01-15T07:12:44;99471.50;;;4.76;100.00
71666;BME280;59503;53.486;10.196;2023-01-15T07:15:10;99480.13;;;4.66;100.00
71666;BME280;59503;53.486;10.196;2023-01-15T07:17:35;99469.66;;;4.61;100.00
71666;BME280;59503;53.486;10.196;2023-01-15T07:20:03;99463.91;;;4.62;100.00
71666;BME280;59503;53.486;10.196;2023-01-15T07:22:29;99457.22;;;4.72;100.00
71666;BME280;59503;53.486;10.196;2023-01-15T07:24:54;99460.47;;;4.62;100.00
71666;BME280;59503;53.486;10.196;2023-01-15T07:27:20;99459.31;;;4.63;100.00
71666;BME280;59503;53.486;10.196;2023-01-15T07:29:46;99452.66;;;4.57;100.00
71666;BME280;59503;53.486;10.196;2023-01-15T07:32:12;99462.56;;;4.53;100.00
71666;BME280;59503;53.486;10.196;2023-01-15T07:34:37;99457.19;;;4.53;100.00
71666;BME280;59503;53.486;10.196;2023-01-15T07:37:03;99452.66;;;4.57;100.00
71666;BME280;59503;53.486;10.196;2023-01-15T07:39:28;99462.28;;;4.58;100.00
71666;BME280;59503;53.486;10.196;2023-01-15T07:41:55;99456.63;;;4.63;100.00
71666;BME280;59503;53.486;10.196;2023-01-15T07:44:39;99451.75;;;4.68;100.00
71666;BME280;59503;53.486;10.196;2023-01-15T07:47:25;99463.56;;;4.64;100.00
71666;BME280;59503;53.486;10.196;2023-01-15T07:50:15;99477.81;;;4.64;100.00
71666;BME280;59503;53.486;10.196;2023-01-15T07:52:41;99470.06;;;4.63;100.00
71666;BME280;59503;53.486;10.196;2023-01-15T07:55:08;99469.00;;;4.67;100.00
71666;BME280;59503;53.486;10.196;2023-01-15T07:57:35;99466.59;;;4.62;100.00
71666;BME280;59503;53.486;10.196;2023-01-15T08:00:01;99469.72;;;4.64;100.00
71666;BME280;59503;53.486;10.196;2023-01-15T08:02:27;99466.13;;;4.76;100.00
71666;BME280;59503;53.486;10.196;2023-01-15T08:04:52;99469.66;;;4.80;100.00
71666;BME280;59503;53.486;10.196;2023-01-15T08:07:17;99473.91;;;4.81;100.00
71666;BME280;59503;53.486;10.196;2023-01-15T08:09:43;99471.50;;;4.76;100.00
71666;BME280;59503;53.486;10.196;2023-01-15T08:12:09;99481.91;;;4.77;100.00
71666;BME280;59503;53.486;10.196;2023-01-15T08:14:54;99478.19;;;4.82;100.00
71666;BME280;59503;53.486;10.196;2023-01-15T08:17:40;99476.59;;;4.81;100.00
71666;BME280;59503;53.486;10.196;2023-01-15T08:20:09;99477.75;;;4.80;100.00
71666;BME280;59503;53.486;10.196;2023-01-15T08:22:36;99479.28;;;4.81;100.00
71666;BME280;59503;53.486;10.196;2023-01-15T08:25:03;99475.84;;;4.80;100.00
71666;BME280;59503;53.486;10.196;2023-01-15T08:27:29;99484.31;;;4.82;100.00
71666;BME280;59503;53.486;10.196;2023-01-15T08:29:55;99475.19;;;4.87;100.00
71666;BME280;59503;53.486;10.196;2023-01-15T08:32:22;99480.03;;;4.97;100.00
71666;BME280;59503;53.486;10.196;2023-01-15T08:34:47;99485.13;;;5.02;100.00
71666;BME280;59503;53.486;10.196;2023-01-15T08:37:13;99483.25;;;5.06;100.00
71666;BME280;59503;53.486;10.196;2023-01-15T08:39:38;99487.53;;;5.07;100.00
71666;BME280;59503;53.486;10.196;2023-01-15T08:42:04;99476.75;;;5.07;100.00
71666;BME280;59503;53.486;10.196;2023-01-15T08:44:29;99480.56;;;5.06;100.00
71666;BME280;59503;53.486;10.196;2023-01-15T08:46:55;99482.78;;;5.00;100.00
71666;BME280;59503;53.486;10.196;2023-01-15T08:49:20;99465.69;;;4.93;100.00
71666;BME280;59503;53.486;10.196;2023-01-15T08:51:51;99480.41;;;4.99;100.00
71666;BME280;59503;53.486;10.196;2023-01-15T08:54:18;99472.78;;;5.01;100.00
71666;BME280;59503;53.486;10.196;2023-01-15T08:56:45;99471.94;;;4.97;100.00
71666;BME280;59503;53.486;10.196;2023-01-15T08:59:11;99473.78;;;4.93;100.00
71666;BME280;59503;53.486;10.196;2023-01-15T09:01:36;99470.06;;;5.01;100.00
71666;BME280;59503;53.486;10.196;2023-01-15T09:04:02;99453.50;;;4.99;100.00
71666;BME280;59503;53.486;10.196;2023-01-15T09:06:30;99463.78;;;4.93;100.00
71666;BME280;59503;53.486;10.196;2023-01-15T09:08:58;99460.59;;;4.88;100.00
71666;BME280;59503;53.486;10.196;2023-01-15T09:11:23;99454.94;;;4.93;100.00
71666;BME280;59503;53.486;10.196;2023-01-15T09:13:49;99459.03;;;4.87;100.00
71666;BME280;59503;53.486;10.196;2023-01-15T09:16:16;99460.09;;;4.82;100.00
71666;BME280;59503;53.486;10.196;2023-01-15T09:18:42;99453.66;;;4.87;100.00
71666;BME280;59503;53.486;10.196;2023-01-15T09:21:08;99433.81;;;4.95;100.00
71666;BME280;59503;53.486;10.196;2023-01-15T09:23:34;99458.88;;;4.99;100.00
71666;BME280;59503;53.486;10.196;2023-01-15T09:26:02;99456.63;;;5.01;100.00
71666;BME280;59503;53.486;10.196;2023-01-15T09:28:31;99443.44;;;4.96;100.00
71666;BME280;59503;53.486;10.196;2023-01-15T09:30:57;99448.06;;;4.95;99.47
71666;BME280;59503;53.486;10.196;2023-01-15T09:33:22;99454.94;;;4.93;98.53
71666;BME280;59503;53.486;10.196;2023-01-15T09:35:48;99447.06;;;4.84;98.21
71666;BME280;59503;53.486;10.196;2023-01-15T09:38:15;99461.03;;;4.90;96.65
71666;BME280;59503;53.486;10.196;2023-01-15T09:40:51;99464.06;;;4.88;96.52
71666;BME280;59503;53.486;10.196;2023-01-15T09:43:32;99457.47;;;4.86;94.86
71666;BME280;59503;53.486;10.196;2023-01-15T09:46:13;99467.81;;;4.84;96.16
71666;BME280;59503;53.486;10.196;2023-01-15T09:48:56;99462.44;;;4.84;95.31
71666;BME280;59503;53.486;10.196;2023-01-15T09:51:50;99475.00;;;4.95;93.92
71666;BME280;59503;53.486;10.196;2023-01-15T09:54:42;99477.72;;;4.99;92.79
71666;BME280;59503;53.486;10.196;2023-01-15T09:57:14;99471.63;;;5.21;88.20
71666;BME280;59503;53.486;10.196;2023-01-15T09:59:47;99472.19;;;5.11;89.55
71666;BME280;59503;53.486;10.196;2023-01-15T10:02:23;99466.66;;;5.04;89.95
71666;BME280;59503;53.486;10.196;2023-01-15T10:05:09;99465.06;;;4.99;91.38
71666;BME280;59503;53.486;10.196;2023-01-15T10:07:41;99478.00;;;4.94;91.65
71666;BME280;59503;53.486;10.196;2023-01-15T10:10:13;99483.91;;;4.99;92.18
71666;BME280;59503;53.486;10.196;2023-01-15T10:12:43;99476.09;;;5.14;90.17
71666;BME280;59503;53.486;10.196;2023-01-15T10:15:15;99481.22;;;5.19;89.75
71666;BME280;59503;53.486;10.196;2023-01-15T10:17:48;99476.31;;;5.24;90.06
71666;BME280;59503;53.486;10.196;2023-01-15T10:25:48;99472.31;;;5.37;89.72
71666;BME280;59503;53.486;10.196;2023-01-15T10:28:21;99480.88;;;5.43;88.20
71666;BME280;59503;53.486;10.196;2023-01-15T10:30:55;99482.94;;;5.49;89.65
71666;BME280;59503;53.486;10.196;2023-01-15T10:36:17;99467.47;;;5.69;85.17
71666;BME280;59503;53.486;10.196;2023-01-15T10:38:53;99470.22;;;5.72;85.43
71666;BME280;59503;53.486;10.196;2023-01-15T10:44:49;99465.81;;;5.83;82.96
71666;BME280;59503;53.486;10.196;2023-01-15T10:47:18;99467.47;;;5.91;83.52
71666;BME280;59503;53.486;10.196;2023-01-15T10:49:48;99482.66;;;5.99;82.20
71666;BME280;59503;53.486;10.196;2023-01-15T10:52:24;99479.78;;;5.89;81.86
71666;BME280;59503;53.486;10.196;2023-01-15T10:55:01;99467.38;;;5.84;82.62
71666;BME280;59503;53.486;10.196;2023-01-15T10:57:50;99457.53;;;5.73;83.95
71666;BME280;59503;53.486;10.196;2023-01-15T11:00:17;99448.50;;;5.84;82.53
71666;BME280;59503;53.486;10.196;2023-01-15T11:03:00;99446.19;;;5.83;81.05
71666;BME280;59503;53.486;10.196;2023-01-15T11:05:39;99424.81;;;5.74;79.35
71666;BME280;59503;53.486;10.196;2023-01-15T11:08:07;99444.09;;;5.76;80.79
71666;BME280;59503;53.486;10.196;2023-01-15T11:10:36;99440.06;;;5.86;80.81
71666;BME280;59503;53.486;10.196;2023-01-15T11:13:22;99428.41;;;6.04;80.64
71666;BME280;59503;53.486;10.196;2023-01-15T11:16:25;99431.38;;;6.25;78.55
71666;BME280;59503;53.486;10.196;2023-01-15T11:19:04;99427.47;;;6.19;78.16
71666;BME280;59503;53.486;10.196;2023-01-15T11:21:59;99421.44;;;6.03;80.65
71666;BME280;59503;53.486;10.196;2023-01-15T11:24:25;99406.34;;;5.99;79.30
71666;BME280;59503;53.486;10.196;2023-01-15T11:26:51;99415.72;;;6.08;78.02
71666;BME280;59503;53.486;10.196;2023-01-15T11:29:34;99425.34;;;6.06;78.88
71666;BME280;59503;53.486;10.196;2023-01-15T11:32:01;99411.78;;;6.02;77.94
71666;BME280;59503;53.486;10.196;2023-01-15T11:34:26;99416.03;;;6.03;77.83
71666;BME280;59503;53.486;10.196;2023-01-15T11:37:05;99412.09;;;5.97;79.32
71666;BME280;59503;53.486;10.196;2023-01-15T11:39:31;99410.25;;;6.01;78.76
71666;BME280;59503;53.486;10.196;2023-01-15T11:41:58;99411.38;;;6.00;79.89
71666;BME280;59503;53.486;10.196;2023-01-15T11:44:53;99408.69;;;6.00;78.39
71666;BME280;59503;53.486;10.196;2023-01-15T11:47:37;99408.38;;;6.05;78.04
71666;BME280;59503;53.486;10.196;2023-01-15T11:50:21;99386.72;;;6.02;79.47
71666;BME280;59503;53.486;10.196;2023-01-15T11:53:08;99419.59;;;5.85;83.98
71666;BME280;59503;53.486;10.196;2023-01-15T11:56:04;99449.66;;;5.19;94.09
71666;BME280;59503;53.486;10.196;2023-01-15T11:58:43;99466.53;;;4.59;100.00
71666;BME280;59503;53.486;10.196;2023-01-15T12:01:12;99496.47;;;4.23;100.00
71666;BME280;59503;53.486;10.196;2023-01-15T12:03:40;99502.56;;;3.89;100.00
71666;BME280;59503;53.486;10.196;2023-01-15T12:06:09;99568.41;;;3.51;100.00
71666;BME280;59503;53.486;10.196;2023-01-15T12:09:03;99542.22;;;2.29;100.00
71666;BME280;59503;53.486;10.196;2023-01-15T12:14:35;99445.72;;;2.17;100.00
71666;BME280;59503;53.486;10.196;2023-01-15T12:22:36;99462.78;;;2.77;100.00
71666;BME280;59503;53.486;10.196;2023-01-15T12:25:37;99454.00;;;2.92;100.00
71666;BME280;59503;53.486;10.196;2023-01-15T12:28:16;99444.06;;;2.92;100.00
71666;BME280;59503;53.486;10.196;2023-01-15T12:33:40;99433.44;;;3.11;100.00
71666;BME280;59503;53.486;10.196;2023-01-15T12:36:09;99432.88;;;3.33;100.00
71666;BME280;59503;53.486;10.196;2023-01-15T12:38:45;99417.72;;;3.56;100.00
71666;BME280;59503;53.486;10.196;2023-01-15T12:41:14;99416.59;;;3.57;100.00
71666;BME280;59503;53.486;10.196;2023-01-15T12:43:43;99403.16;;;3.57;100.00
71666;BME280;59503;53.486;10.196;2023-01-15T12:46:31;99399.78;;;3.60;100.00
71666;BME280;59503;53.486;10.196;2023-01-15T12:49:31;99415.19;;;3.63;100.00
71666;BME280;59503;53.486;10.196;2023-01-15T12:52:08;99401.31;;;3.61;100.00
71666;BME280;59503;53.486;10.196;2023-01-15T12:54:40;99403.13;;;3.73;100.00
71666;BME280;59503;53.486;10.196;2023-01-15T12:57:43;99409.47;;;3.80;100.00
71666;BME280;59503;53.486;10.196;2023-01-15T13:00:34;99394.50;;;3.99;100.00
71666;BME280;59503;53.486;10.196;2023-01-15T13:05:55;99374.47;;;4.31;100.00
71666;BME280;59503;53.486;10.196;2023-01-15T13:08:29;99388.56;;;4.62;100.00
71666;BME280;59503;53.486;10.196;2023-01-15T13:10:57;99369.56;;;4.93;100.00
71666;BME280;59503;53.486;10.196;2023-01-15T13:13:25;99361.13;;;4.95;100.00
71666;BME280;59503;53.486;10.196;2023-01-15T13:19:06;99359.38;;;4.83;100.00
71666;BME280;59503;53.486;10.196;2023-01-15T13:21:35;99354.72;;;4.80;100.00
71666;BME280;59503;53.486;10.196;2023-01-15T13:24:38;99358.50;;;4.79;100.00
71666;BME280;59503;53.486;10.196;2023-01-15T13:27:21;99362.66;;;4.96;100.00
71666;BME280;59503;53.486;10.196;2023-01-15T13:32:54;99363.19;;;4.82;100.00
71666;BME280;59503;53.486;10.196;2023-01-15T13:35:35;99362.13;;;4.87;100.00
71666;BME280;59503;53.486;10.196;2023-01-15T13:38:04;99362.44;;;4.82;100.00
71666;BME280;59503;53.486;10.196;2023-01-15T13:43:00;99356.84;;;4.94;98.70
71666;BME280;59503;53.486;10.196;2023-01-15T13:45:39;99364.94;;;4.94;100.00
71666;BME280;59503;53.486;10.196;2023-01-15T13:48:11;99353.81;;;4.95;99.23
71666;BME280;59503;53.486;10.196;2023-01-15T13:50:52;99360.53;;;5.05;98.78
71666;BME280;59503;53.486;10.196;2023-01-15T13:53:23;99340.88;;;5.04;97.38
71666;BME280;59503;53.486;10.196;2023-01-15T13:55:59;99363.66;;;5.07;98.16
71666;BME280;59503;53.486;10.196;2023-01-15T13:58:32;99358.25;;;5.07;97.95
71666;BME280;59503;53.486;10.196;2023-01-15T14:01:20;99369.72;;;5.04;100.00
71666;BME280;59503;53.486;10.196;2023-01-15T14:04:13;99356.63;;;5.02;99.47